Time;durP1;ratioP1;P1;durP2;ratioP2;P2;SDS_P1;SDS_P2;PMS_P1;PMS_P2;Temp;Humidity;BMP_temperature;BMP_pressure;BME280_temperature;BME280_humidity;BME280_pressure;Samples;Min_cycle;Max_cycle;Signal;HPM_P1;HPM_P2
2022/03/29 00:00:23;;;;;;;;;45.25;36.00;;;;;18.91;33.73;100802.25;2104354;28;46074;-59
2022/03/29 00:01:24;;;;;;;;;44.50;37.50;;;;;18.91;33.78;100802.25;2103915;28;47951;-57
2022/03/29 00:02:24;;;;;;;;;42.00;34.50;;;;;18.90;33.72;100798.72;2103707;28;47915;-59
2022/03/29 00:03:25;;;;;;;;;41.00;33.25;;;;;18.90;33.71;100797.84;2103656;28;47631;-58
2022/03/29 00:04:26;;;;;;;;;36.40;31.60;;;;;18.89;33.93;100798.78;2103412;27;48044;-57
2022/03/29 00:05:26;;;;;;;;;37.75;31.25;;;;;18.89;34.16;100799.66;2106690;27;47770;-59
2022/03/29 00:06:27;;;;;;;;;31.00;29.50;;;;;18.90;33.99;100800.53;2103895;28;47910;-59
2022/03/29 00:07:27;;;;;;;;;35.25;30.50;;;;;18.89;33.95;100802.34;2101875;28;47436;-59
2022/03/29 00:08:28;;;;;;;;;31.00;28.75;;;;;18.89;33.88;100796.09;2090845;28;47266;-60
2022/03/29 00:09:28;;;;;;;;;33.25;31.00;;;;;18.87;34.22;100785.44;2089330;28;48001;-59
2022/03/29 00:10:29;;;;;;;;;42.00;35.00;;;;;18.87;33.86;100793.50;2085444;28;47803;-57
2022/03/29 00:11:29;;;;;;;;;41.25;34.75;;;;;18.86;34.11;100794.47;2085554;28;47668;-57
2022/03/29 00:12:30;;;;;;;;;44.50;37.25;;;;;18.85;34.31;100789.16;2103460;27;47978;-56
2022/03/29 00:13:30;;;;;;;;;35.50;32.00;;;;;18.84;34.26;100782.94;2097755;27;47881;-59
2022/03/29 00:14:31;;;;;;;;;39.25;34.00;;;;;18.85;34.12;100786.47;2105471;27;47387;-56
2022/03/29 00:15:31;;;;;;;;;35.75;31.25;;;;;18.84;34.21;100785.63;2106486;27;48010;-58
2022/03/29 00:16:32;;;;;;;;;34.00;29.25;;;;;18.83;34.10;100783.88;2103568;28;47598;-58
2022/03/29 00:17:33;;;;;;;;;33.80;30.00;;;;;18.83;33.90;100780.31;2106233;27;47702;-59
2022/03/29 00:18:33;;;;;;;;;32.50;30.00;;;;;18.82;34.03;100779.47;2102421;27;46725;-57
2022/03/29 00:19:34;;;;;;;;;31.50;30.00;;;;;18.82;34.04;100774.06;2103471;28;47834;-56
2022/03/29 00:20:34;;;;;;;;;39.25;32.25;;;;;18.83;33.99;100769.56;2104948;27;47498;-57
2022/03/29 00:21:35;;;;;;;;;37.75;30.00;;;;;18.81;33.96;100766.97;2104486;27;47839;-58
2022/03/29 00:22:35;;;;;;;;;35.50;31.00;;;;;18.83;34.41;100769.56;2100324;27;47387;-58
2022/03/29 00:23:36;;;;;;;;;37.25;32.25;;;;;18.83;34.04;100767.75;2101440;27;47939;-56
2022/03/29 00:24:36;;;;;;;;;31.25;27.50;;;;;18.83;34.13;100766.88;2100826;28;47078;-59
2022/03/29 00:25:37;;;;;;;;;30.50;28.25;;;;;18.81;34.13;100770.53;2081549;28;47612;-56
2022/03/29 00:26:37;;;;;;;;;27.50;26.50;;;;;18.81;34.13;100765.16;2079008;28;47080;-58
2022/03/29 00:27:38;;;;;;;;;30.25;28.00;;;;;18.80;34.11;100763.41;2098886;28;48057;-59
2022/03/29 00:28:38;;;;;;;;;30.25;29.00;;;;;18.80;34.06;100765.19;2103163;27;47727;-59
2022/03/29 00:29:39;;;;;;;;;38.75;33.25;;;;;18.80;34.24;100766.09;2097044;27;47413;-59
2022/03/29 00:30:39;;;;;;;;;34.25;30.50;;;;;18.79;34.19;100758.97;2099299;27;47722;-59
2022/03/29 00:31:40;;;;;;;;;38.75;32.75;;;;;18.80;34.12;100757.13;2101674;27;47515;-58
2022/03/29 00:32:41;;;;;;;;;26.75;25.25;;;;;18.80;34.25;100760.72;2103653;28;47439;-58
2022/03/29 00:33:42;;;;;;;;;35.20;31.80;;;;;18.80;34.17;100759.81;2105629;27;48002;-57
2022/03/29 00:34:42;;;;;;;;;32.50;30.25;;;;;18.79;34.19;100758.97;2099624;27;47207;-58
2022/03/29 00:35:42;;;;;;;;;28.00;26.75;;;;;18.79;33.91;100763.47;2096092;27;47679;-59
2022/03/29 00:36:43;;;;;;;;;35.50;30.50;;;;;18.79;34.19;100752.72;2099212;27;47262;-59
2022/03/29 00:37:44;;;;;;;;;32.00;29.00;;;;;18.79;34.11;100755.41;2104022;27;47250;-60
2022/03/29 00:38:47;;;;;;;;;32.00;29.50;;;;;18.77;34.11;100751.94;2111008;27;47528;-58
2022/03/29 00:39:48;;;;;;;;;32.40;30.20;;;;;18.76;34.25;100747.50;2103181;27;47521;-58
2022/03/29 00:40:48;;;;;;;;;28.25;27.50;;;;;18.74;34.16;100744.91;2101934;28;45734;-57
2022/03/29 00:41:49;;;;;;;;;30.75;27.75;;;;;18.74;34.21;100744.03;2100916;27;47481;-59
2022/03/29 00:42:50;;;;;;;;;30.00;27.50;;;;;18.72;34.09;100745.97;2104510;27;47966;-59
2022/03/29 00:43:50;;;;;;;;;29.50;27.00;;;;;18.70;34.19;100743.34;2103165;28;47336;-60
2022/03/29 00:44:51;;;;;;;;;31.25;29.00;;;;;18.69;34.12;100738.94;2105819;27;47559;-59
2022/03/29 00:45:51;;;;;;;;;32.50;29.50;;;;;18.68;34.41;100744.41;2099742;27;47535;-59
2022/03/29 00:46:51;;;;;;;;;31.50;28.50;;;;;18.65;34.27;100737.34;2104703;27;47729;-57
2022/03/29 00:47:52;;;;;;;;;29.00;26.50;;;;;18.65;34.21;100733.78;2094499;28;47894;-58
2022/03/29 00:48:52;;;;;;;;;39.00;32.25;;;;;18.64;34.17;100732.91;2094402;28;47697;-58
2022/03/29 00:49:53;;;;;;;;;32.00;28.75;;;;;18.63;34.19;100730.28;2085000;28;47486;-56
2022/03/29 00:50:54;;;;;;;;;33.50;29.75;;;;;18.62;34.27;100728.56;2090477;28;47778;-60
2022/03/29 00:51:58;;;;;;;;;32.00;29.50;;;;;18.60;34.50;100725.97;2100870;28;47839;-58
2022/03/29 00:52:58;;;;;;;;;27.00;26.00;;;;;18.59;34.42;100724.22;2107910;27;47184;-58
2022/03/29 00:53:59;;;;;;;;;31.50;30.25;;;;;18.57;34.48;100718.06;2104895;27;47009;-57
2022/03/29 00:55:00;;;;;;;;;32.75;30.25;;;;;18.57;34.60;100715.38;2105399;27;47086;-59
2022/03/29 00:56:02;;;;;;;;;29.60;27.20;;;;;18.57;34.61;100719.88;2104248;27;47491;-58
2022/03/29 00:57:04;;;;;;;;;34.80;29.00;;;;;18.56;34.62;100716.34;2103694;28;47954;-60
2022/03/29 00:58:09;;;;;;;;;29.60;28.00;;;;;18.56;34.48;100715.47;2098188;28;47959;-56
2022/03/29 00:59:10;;;;;;;;;34.20;29.80;;;;;18.54;34.30;100711.00;2103070;27;47545;-58
2022/03/29 01:00:13;;;;;;;;;32.20;27.40;;;;;18.54;34.43;100710.16;2100053;28;48229;-57
2022/03/29 01:01:15;;;;;;;;;30.80;29.80;;;;;18.53;34.60;100711.97;2080037;28;47761;-57
2022/03/29 01:02:15;;;;;;;;;31.80;30.00;;;;;18.51;34.44;100703.13;2076730;28;47558;-58
2022/03/29 01:03:15;;;;;;;;;28.75;28.25;;;;;18.52;34.53;100704.88;2103128;28;47686;-58
2022/03/29 01:04:16;;;;;;;;;28.00;27.00;;;;;18.50;34.42;100697.84;2103523;28;45728;-59
2022/03/29 01:05:17;;;;;;;;;36.50;29.75;;;;;18.50;34.66;100697.84;2103066;28;47722;-58
2022/03/29 01:06:17;;;;;;;;;25.60;23.60;;;;;18.49;34.56;100699.66;2103237;28;47609;-57
2022/03/29 01:07:18;;;;;;;;;29.00;28.25;;;;;18.48;34.68;100689.88;2083675;28;47478;-57
2022/03/29 01:08:18;;;;;;;;;30.50;29.25;;;;;18.48;34.40;100697.94;2085600;28;46725;-58
2022/03/29 01:09:19;;;;;;;;;32.75;27.00;;;;;18.48;34.33;100689.00;2101562;28;48217;-57
2022/03/29 01:10:20;;;;;;;;;30.75;28.50;;;;;18.49;34.44;100696.09;2085373;28;47751;-57
2022/03/29 01:11:20;;;;;;;;;28.50;25.75;;;;;18.47;34.52;100689.97;2085186;28;47036;-58
2022/03/29 01:12:22;;;;;;;;;31.25;29.75;;;;;18.47;34.56;100696.19;2099908;28;47677;-58
2022/03/29 01:13:23;;;;;;;;;33.20;29.60;;;;;18.47;34.80;100695.34;2094900;28;48128;-57
2022/03/29 01:14:25;;;;;;;;;32.00;29.75;;;;;18.47;34.65;100689.97;2101587;28;47651;-56
2022/03/29 01:15:27;;;;;;;;;32.60;30.80;;;;;18.48;34.67;100694.38;2101368;28;48062;-58
2022/03/29 01:17:47;;;;;;;;;36.80;30.20;;;;;18.47;34.48;100690.81;2104572;28;47548;-57
2022/03/29 01:18:48;;;;;;;;;31.60;28.80;;;;;18.48;34.21;100694.38;2103358;28;48012;-58
2022/03/29 01:19:50;;;;;;;;;36.80;32.40;;;;;18.48;34.74;100697.06;2096687;28;47650;-57
2022/03/29 01:20:54;;;;;;;;;30.60;28.60;;;;;18.48;34.38;100695.25;2103127;28;47860;-58
2022/03/29 01:21:57;;;;;;;;;25.20;21.40;;;;;18.48;35.06;100692.56;2104769;27;47873;-57
2022/03/29 01:23:00;;;;;;;;;35.20;30.00;;;;;18.48;34.50;100694.38;2078518;28;47520;-59
2022/03/29 01:24:01;;;;;;;;;32.80;29.60;;;;;18.47;34.75;100685.44;2079588;28;48081;-59
2022/03/29 01:25:02;;;;;;;;;42.60;35.20;;;;;18.45;34.75;100687.34;2100749;28;47813;-59
2022/03/29 01:26:03;;;;;;;;;41.75;35.75;;;;;18.45;34.85;100689.19;2084647;28;47114;-55
2022/03/29 01:27:05;;;;;;;;;41.50;36.25;;;;;18.42;35.23;100682.16;2081163;28;47522;-58
2022/03/29 01:28:06;;;;;;;;;47.00;38.60;;;;;18.41;35.17;100684.91;2095788;28;47502;-58
2022/03/29 01:29:07;;;;;;;;;43.80;36.60;;;;;18.38;35.03;100680.56;2077868;28;46011;-59
2022/03/29 01:30:08;;;;;;;;;47.25;39.25;;;;;18.35;35.24;100675.38;2078359;28;47481;-58
2022/03/29 01:31:10;;;;;;;;;46.50;39.25;;;;;18.34;35.32;100678.16;2077290;28;48228;-58
2022/03/29 01:32:11;;;;;;;;;50.40;40.40;;;;;18.32;35.25;100672.00;2078087;28;48080;-57
2022/03/29 01:33:11;;;;;;;;;51.40;42.80;;;;;18.32;35.58;100669.31;2075795;28;48214;-59
2022/03/29 01:34:12;;;;;;;;;53.00;42.75;;;;;18.31;35.18;100673.81;2070104;28;47694;-58
2022/03/29 01:35:15;;;;;;;;;49.25;40.50;;;;;18.30;35.27;100677.44;2075667;28;47975;-57
2022/03/29 01:36:16;;;;;;;;;54.00;45.40;;;;;18.29;35.49;100674.81;2078415;28;48008;-56
2022/03/29 01:37:16;;;;;;;;;54.75;44.25;;;;;18.28;35.51;100673.94;2076799;28;47781;-59
2022/03/29 01:38:17;;;;;;;;;53.00;41.50;;;;;18.28;35.47;100662.34;2073293;28;47623;-58
2022/03/29 01:39:17;;;;;;;;;53.75;43.75;;;;;18.27;35.38;100666.84;2072369;28;48007;-60
2022/03/29 01:40:19;;;;;;;;;55.50;43.00;;;;;18.27;35.35;100663.28;2078366;28;47018;-60
2022/03/29 01:41:20;;;;;;;;;51.00;41.80;;;;;18.26;35.39;100661.56;2078580;28;47954;-60
2022/03/29 01:42:20;;;;;;;;;52.25;43.25;;;;;18.26;35.76;100654.38;2078800;28;47569;-58
2022/03/29 01:43:21;;;;;;;;;49.75;39.75;;;;;18.26;35.55;100656.19;2078491;28;48152;-58
2022/03/29 01:44:21;;;;;;;;;49.00;40.75;;;;;18.26;35.57;100657.06;2078154;28;47617;-60
2022/03/29 01:45:25;;;;;;;;;51.50;41.75;;;;;18.26;35.42;100650.81;2073995;28;47320;-58
2022/03/29 01:46:26;;;;;;;;;49.80;41.80;;;;;18.26;35.74;100643.63;2076780;28;47404;-59
2022/03/29 01:47:26;;;;;;;;;49.40;41.40;;;;;18.27;35.54;100650.72;2078293;28;48012;-59
2022/03/29 01:48:27;;;;;;;;;46.75;40.25;;;;;18.26;35.66;100640.06;2078519;28;47848;-57
2022/03/29 01:49:28;;;;;;;;;48.00;40.50;;;;;18.24;35.83;100649.09;2075940;28;47600;-58
2022/03/29 01:50:28;;;;;;;;;49.75;40.25;;;;;18.23;35.47;100647.34;2075445;28;47979;-58
2022/03/29 01:51:29;;;;;;;;;52.00;42.00;;;;;18.22;35.70;100651.00;2078578;28;46524;-57
2022/03/29 01:52:38;;;;;;;;;54.00;43.00;;;;;18.20;35.73;100644.84;2076922;28;47787;-59
2022/03/29 01:53:39;;;;;;;;;50.60;41.60;;;;;18.18;35.80;100649.44;2078444;28;47642;-60
2022/03/29 01:54:40;;;;;;;;;48.20;39.80;;;;;18.17;35.97;100649.53;2073886;28;47625;-59
2022/03/29 01:55:42;;;;;;;;;50.00;41.25;;;;;18.15;35.71;100646.88;2073892;28;47484;-56
2022/03/29 01:56:43;;;;;;;;;49.40;40.00;;;;;18.14;36.06;100644.28;2078121;28;47912;-59
2022/03/29 01:57:44;;;;;;;;;50.50;38.50;;;;;18.14;35.97;100647.84;2078768;28;47850;-59
2022/03/29 01:58:44;;;;;;;;;45.50;39.00;;;;;18.14;35.75;100649.66;2077589;28;47479;-60
2022/03/29 02:01:04;;;;;;;;;46.40;37.00;;;;;18.13;35.76;100646.09;2089226;28;47517;-58
2022/03/29 02:02:05;;;;;;;;;35.50;33.00;;;;;18.12;35.96;100652.44;2097097;28;47109;-58
2022/03/29 02:03:07;;;;;;;;;45.00;36.60;;;;;18.12;35.83;100649.75;2101688;28;47666;-58
2022/03/29 02:04:08;;;;;;;;;42.20;34.20;;;;;18.10;36.00;100646.28;2094433;28;47978;-59
2022/03/29 02:05:09;;;;;;;;;36.50;33.00;;;;;18.09;35.91;100643.69;2089111;28;47633;-58
2022/03/29 02:06:10;;;;;;;;;42.60;35.60;;;;;18.07;36.07;100640.22;2103940;28;48184;-57
2022/03/29 02:07:11;;;;;;;;;39.50;33.75;;;;;18.06;36.16;100635.81;2101432;28;47125;-58
2022/03/29 02:08:11;;;;;;;;;42.25;32.75;;;;;18.05;36.14;100643.00;2104392;28;47439;-59
2022/03/29 02:09:12;;;;;;;;;35.75;30.50;;;;;18.04;35.84;100630.50;2100639;27;48208;-57
2022/03/29 02:10:17;;;;;;;;;36.50;32.00;;;;;18.04;36.00;100632.31;2099467;28;47858;-60
2022/03/29 02:11:18;;;;;;;;;40.00;30.20;;;;;18.03;36.25;100627.88;2103967;28;47482;-57
2022/03/29 02:12:18;;;;;;;;;36.25;34.25;;;;;18.02;36.11;100631.53;2101178;28;48056;-59
2022/03/29 02:13:19;;;;;;;;;38.75;32.50;;;;;18.01;36.05;100627.09;2099737;28;47492;-59
2022/03/29 02:14:20;;;;;;;;;36.80;31.20;;;;;18.00;36.28;100630.75;2099530;27;47329;-58
2022/03/29 02:15:20;;;;;;;;;37.00;30.75;;;;;17.99;36.09;100627.19;2101069;27;47285;-58
2022/03/29 02:16:21;;;;;;;;;31.75;28.75;;;;;17.98;36.21;100625.47;2102255;27;47351;-56
2022/03/29 02:17:21;;;;;;;;;13.25;12.00;;;;;17.97;36.31;100622.84;2102904;28;47211;-59
2022/03/29 02:18:22;;;;;;;;;37.75;30.75;;;;;17.96;36.46;100623.81;2100102;27;47947;-60
2022/03/29 02:19:22;;;;;;;;;32.25;30.75;;;;;17.94;36.09;100618.53;2106599;27;47833;-56
2022/03/29 02:20:24;;;;;;;;;35.50;33.00;;;;;17.94;36.24;100618.53;2073994;28;48013;-59
2022/03/29 02:21:24;;;;;;;;;35.80;32.80;;;;;17.94;36.19;100615.84;2076873;28;47518;-59
2022/03/29 02:22:24;;;;;;;;;32.75;31.00;;;;;17.94;36.29;100614.03;2110579;27;47411;-59
2022/03/29 02:23:25;;;;;;;;;37.50;31.00;;;;;17.96;36.36;100615.75;2102406;27;47602;-59
2022/03/29 02:24:25;;;;;;;;;35.25;32.00;;;;;17.94;36.38;100608.66;2097851;28;48097;-57
2022/03/29 02:25:26;;;;;;;;;29.75;29.00;;;;;17.94;36.07;100605.97;2105793;27;47945;-55
2022/03/29 02:26:26;;;;;;;;;33.25;31.25;;;;;17.95;35.99;100609.53;2100994;27;47922;-60
2022/03/29 02:27:27;;;;;;;;;33.00;28.50;;;;;17.94;35.85;100599.72;2108546;27;47386;-56
2022/03/29 02:28:27;;;;;;;;;38.00;31.75;;;;;17.95;35.79;100601.47;2104250;27;47745;-59
2022/03/29 02:29:27;;;;;;;;;35.50;31.25;;;;;17.94;36.09;100594.38;2104827;27;47525;-58
2022/03/29 02:30:29;;;;;;;;;37.50;32.25;;;;;17.94;36.15;100597.91;2098666;27;48351;-58
2022/03/29 02:31:29;;;;;;;;;31.00;27.80;;;;;17.94;35.72;100595.22;2102765;27;47961;-58
2022/03/29 02:32:29;;;;;;;;;30.25;28.25;;;;;17.94;35.82;100589.00;2108075;27;47055;-57
2022/03/29 02:33:30;;;;;;;;;38.00;32.25;;;;;17.96;36.05;100588.91;2109812;27;47590;-58
2022/03/29 02:34:30;;;;;;;;;30.75;29.50;;;;;17.96;35.84;100583.53;2101972;27;47569;-57
2022/03/29 02:35:32;;;;;;;;;37.75;29.75;;;;;17.95;35.93;100582.69;2110606;27;47494;-58
2022/03/29 02:36:32;;;;;;;;;32.20;29.40;;;;;17.95;35.93;100585.34;2105076;27;47176;-58
2022/03/29 02:37:33;;;;;;;;;31.25;29.25;;;;;17.93;35.83;100584.59;2107026;27;47249;-58
2022/03/29 02:38:34;;;;;;;;;32.60;30.40;;;;;17.91;35.63;100581.97;2111300;27;47802;-59
2022/03/29 02:39:34;;;;;;;;;34.00;31.50;;;;;17.91;35.58;100579.28;2103517;27;47487;-59
2022/03/29 02:40:34;;;;;;;;;25.75;25.75;;;;;17.91;35.91;100578.41;2105266;27;47843;-58
2022/03/29 02:41:35;;;;;;;;;34.50;30.50;;;;;17.90;35.63;100574.84;2099899;27;47848;-58
2022/03/29 02:42:45;;;;;;;;;33.75;31.50;;;;;17.90;35.98;100577.53;2100838;27;47770;-59
2022/03/29 02:43:45;;;;;;;;;34.80;31.00;;;;;17.89;35.48;100573.13;2108934;27;47844;-58
2022/03/29 02:44:46;;;;;;;;;30.75;29.50;;;;;17.89;35.62;100569.56;2106804;27;47382;-60
2022/03/29 02:45:46;;;;;;;;;32.00;30.00;;;;;17.89;35.72;100575.81;2093373;28;47604;-58
2022/03/29 02:46:47;;;;;;;;;33.75;31.75;;;;;17.90;35.83;100568.63;2099693;28;47631;-60
2022/03/29 02:47:50;;;;;;;;;33.50;30.25;;;;;17.89;35.83;100566.88;2104399;27;47695;-58
2022/03/29 02:48:51;;;;;;;;;35.80;32.60;;;;;17.88;35.41;100565.16;2105608;27;47592;-57
2022/03/29 02:49:52;;;;;;;;;33.20;30.60;;;;;17.88;35.50;100562.47;2111448;27;47571;-59
2022/03/29 02:50:52;;;;;;;;;34.00;30.75;;;;;17.86;35.47;100559.88;2108884;27;47668;-59
2022/03/29 02:51:53;;;;;;;;;37.00;33.50;;;;;17.86;35.49;100556.31;2080110;28;46440;-58
2022/03/29 02:52:56;;;;;;;;;35.00;31.00;;;;;17.86;35.34;100556.31;2081483;28;47657;-59
2022/03/29 02:53:56;;;;;;;;;32.60;28.00;;;;;17.87;35.08;100560.72;2105941;27;48104;-57
2022/03/29 02:54:56;;;;;;;;;35.25;32.00;;;;;17.84;35.36;100555.53;2110176;27;47503;-59
2022/03/29 02:55:57;;;;;;;;;36.75;30.75;;;;;17.82;35.42;100555.63;2101434;27;47622;-57
2022/03/29 02:56:57;;;;;;;;;34.25;30.75;;;;;17.82;34.92;100558.31;2097685;28;47141;-59
2022/03/29 02:57:58;;;;;;;;;29.25;27.00;;;;;17.81;35.14;100555.72;2102337;27;47592;-56
2022/03/29 02:58:58;;;;;;;;;33.25;31.50;;;;;17.79;34.75;100554.94;2107014;27;47647;-55
2022/03/29 02:59:59;;;;;;;;;35.25;31.25;;;;;17.78;35.42;100555.84;2104390;27;46801;-58
2022/03/29 03:00:59;;;;;;;;;33.25;29.25;;;;;17.76;35.00;100555.94;2100586;28;48021;-58
2022/03/29 03:02:00;;;;;;;;;26.25;26.25;;;;;17.77;34.89;100554.13;2094171;28;47919;-59
2022/03/29 03:03:00;;;;;;;;;29.75;28.75;;;;;17.75;35.03;100551.53;2094401;28;47684;-59
2022/03/29 03:04:00;;;;;;;;;35.75;29.75;;;;;17.74;34.96;100541.75;2095896;28;47585;-58
2022/03/29 03:05:01;;;;;;;;;33.75;29.00;;;;;17.72;34.88;100548.16;2096395;27;46730;-58
2022/03/29 03:06:02;;;;;;;;;30.25;29.25;;;;;17.73;35.19;100548.06;2101633;27;47781;-59
2022/03/29 03:07:02;;;;;;;;;34.00;30.80;;;;;17.73;34.68;100541.81;2095770;28;48143;-59
2022/03/29 03:08:03;;;;;;;;;31.00;29.00;;;;;17.73;34.69;100548.06;2095779;28;47131;-57
2022/03/29 03:09:04;;;;;;;;;31.00;29.75;;;;;17.72;34.84;100548.16;2073142;28;48198;-58
2022/03/29 03:10:08;;;;;;;;;29.50;28.00;;;;;17.72;34.65;100549.00;2078048;28;45761;-57
2022/03/29 03:11:08;;;;;;;;;31.00;29.00;;;;;17.71;34.62;100551.78;2100952;28;47290;-58
2022/03/29 03:12:10;;;;;;;;;30.80;28.20;;;;;17.68;34.69;100544.75;2097893;28;48151;-55
2022/03/29 03:13:11;;;;;;;;;31.00;29.25;;;;;17.67;34.65;100550.19;2099828;28;47832;-59
2022/03/29 03:14:11;;;;;;;;;28.60;26.00;;;;;17.65;34.53;100551.09;2103808;28;47864;-58
2022/03/29 03:15:15;;;;;;;;;29.25;27.50;;;;;17.63;34.57;100552.16;2102408;28;47727;-57
2022/03/29 03:16:15;;;;;;;;;29.20;28.00;;;;;17.62;34.35;100551.28;2100901;28;47568;-58
2022/03/29 03:17:16;;;;;;;;;26.50;25.75;;;;;17.62;34.35;100550.41;2099489;28;47852;-57
2022/03/29 03:18:16;;;;;;;;;29.00;28.25;;;;;17.61;34.44;100546.88;2095834;28;48307;-55
2022/03/29 03:19:18;;;;;;;;;32.25;29.00;;;;;17.61;34.66;100549.56;2104450;28;47911;-56
2022/03/29 03:20:19;;;;;;;;;32.20;29.40;;;;;17.60;34.41;100549.63;2103873;27;47825;-58
2022/03/29 03:21:19;;;;;;;;;35.50;30.25;;;;;17.58;34.50;100541.66;2102191;27;47750;-58
2022/03/29 03:22:19;;;;;;;;;29.75;27.00;;;;;17.58;34.66;100539.00;2103772;28;47945;-58
2022/03/29 03:23:20;;;;;;;;;29.00;27.75;;;;;17.58;34.42;100541.66;2103897;28;47365;-58
2022/03/29 03:24:20;;;;;;;;;31.25;28.50;;;;;17.58;34.50;100543.50;2101607;28;47839;-58
2022/03/29 03:25:21;;;;;;;;;28.50;24.75;;;;;17.58;34.47;100539.00;2101808;28;47617;-55
2022/03/29 03:26:22;;;;;;;;;28.40;25.40;;;;;17.58;34.50;100535.44;2103970;28;45770;-56
2022/03/29 03:27:22;;;;;;;;;26.75;24.75;;;;;17.57;34.67;100529.22;2103952;28;47320;-58
2022/03/29 03:28:22;;;;;;;;;28.25;27.75;;;;;17.58;34.41;100535.44;2103166;28;47570;-57
2022/03/29 03:29:23;;;;;;;;;27.75;25.75;;;;;17.58;34.13;100530.06;2104043;28;47725;-57
2022/03/29 03:30:23;;;;;;;;;33.25;28.25;;;;;17.59;34.35;100531.81;2097079;28;48002;-59
2022/03/29 03:31:24;;;;;;;;;25.75;21.50;;;;;17.58;34.28;100530.06;2097647;28;47825;-57
2022/03/29 03:32:24;;;;;;;;;30.00;27.75;;;;;17.57;34.35;100531.88;2101424;28;47291;-59
2022/03/29 03:33:25;;;;;;;;;24.75;24.00;;;;;17.57;34.43;100541.75;2103381;28;47380;-58
2022/03/29 03:34:26;;;;;;;;;25.25;24.00;;;;;17.56;34.14;100540.03;2103668;28;48158;-56
2022/03/29 03:35:26;;;;;;;;;29.25;25.00;;;;;17.54;34.62;100532.06;2103854;28;47869;-57
2022/03/29 03:36:27;;;;;;;;;23.50;23.50;;;;;17.55;34.35;100532.94;2103485;28;47668;-59
2022/03/29 03:37:28;;;;;;;;;21.80;18.00;;;;;17.53;34.24;100530.31;2104282;28;47670;-59
2022/03/29 03:38:28;;;;;;;;;19.00;19.00;;;;;17.53;34.63;100532.13;2103417;28;48020;-59
2022/03/29 03:39:34;;;;;;;;;29.25;27.50;;;;;17.53;34.32;100527.66;2103235;27;47736;-59
2022/03/29 03:40:34;;;;;;;;;26.00;25.20;;;;;17.51;34.56;100524.16;2102456;28;47423;-58
2022/03/29 03:41:37;;;;;;;;;23.00;20.50;;;;;17.52;34.56;100527.69;2098020;28;47529;-59
2022/03/29 03:42:38;;;;;;;;;22.40;21.00;;;;;17.50;34.35;100522.41;2096255;28;47980;-59
2022/03/29 03:43:38;;;;;;;;;26.60;26.00;;;;;17.50;34.67;100522.41;2103701;28;47759;-59
2022/03/29 03:44:39;;;;;;;;;22.00;21.50;;;;;17.50;34.65;100519.75;2103803;28;47721;-59
2022/03/29 03:45:39;;;;;;;;;25.25;23.50;;;;;17.50;34.57;100516.19;2102263;28;47487;-57
2022/03/29 03:46:40;;;;;;;;;26.25;24.00;;;;;17.51;34.52;100515.22;2100661;28;47796;-58
2022/03/29 03:47:40;;;;;;;;;19.75;18.50;;;;;17.50;34.78;100521.56;2097578;28;47576;-58
2022/03/29 03:48:41;;;;;;;;;20.50;19.00;;;;;17.50;34.84;100517.06;2095500;28;47727;-57
2022/03/29 03:49:41;;;;;;;;;29.25;27.25;;;;;17.51;34.65;100517.91;2100737;28;45706;-58
2022/03/29 03:50:42;;;;;;;;;23.00;21.50;;;;;17.51;34.37;100517.91;2097186;28;48203;-58
2022/03/29 03:51:42;;;;;;;;;24.75;22.50;;;;;17.51;34.47;100520.59;2103283;28;47681;-58
2022/03/29 03:52:43;;;;;;;;;17.00;17.00;;;;;17.50;34.56;100519.75;2099644;28;48227;-58
2022/03/29 03:53:44;;;;;;;;;26.50;25.50;;;;;17.49;34.53;100518.00;2098524;27;48190;-58
2022/03/29 03:54:45;;;;;;;;;27.80;25.80;;;;;17.47;34.68;100519.03;2077584;28;47852;-59
2022/03/29 03:55:46;;;;;;;;;27.00;25.40;;;;;17.45;34.59;100515.56;2077625;28;47456;-57
2022/03/29 03:56:47;;;;;;;;;24.75;22.50;;;;;17.45;34.97;100518.25;2104076;28;48124;-60
2022/03/29 03:57:49;;;;;;;;;27.60;23.80;;;;;17.43;34.66;100506.75;2103190;28;45956;-57
2022/03/29 03:58:49;;;;;;;;;22.00;18.60;;;;;17.43;35.14;100509.44;2100169;28;47871;-58
2022/03/29 03:59:51;;;;;;;;;22.75;20.50;;;;;17.42;35.05;100505.03;2100816;28;47697;-57
2022/03/29 04:00:51;;;;;;;;;26.20;23.80;;;;;17.42;34.98;100505.88;2102141;28;47771;-57
2022/03/29 04:01:52;;;;;;;;;24.00;22.25;;;;;17.43;34.93;100506.75;2101956;28;47757;-59
2022/03/29 04:02:53;;;;;;;;;25.50;24.50;;;;;17.43;35.17;100498.69;2104066;27;47736;-56
2022/03/29 04:03:54;;;;;;;;;27.40;26.00;;;;;17.42;34.99;100497.84;2098915;28;47247;-59
2022/03/29 04:04:54;;;;;;;;;28.00;27.25;;;;;17.43;34.89;100498.69;2103512;28;47791;-57
2022/03/29 04:05:54;;;;;;;;;26.25;24.00;;;;;17.42;34.73;100499.66;2098644;28;47382;-59
2022/03/29 04:06:55;;;;;;;;;23.50;22.00;;;;;17.42;34.83;100503.19;2097515;28;47649;-57
2022/03/29 04:07:56;;;;;;;;;24.75;24.00;;;;;17.42;34.96;100500.53;2103146;28;47167;-60
2022/03/29 04:08:56;;;;;;;;;19.50;16.75;;;;;17.42;34.91;100495.16;2103821;28;47942;-57
2022/03/29 04:09:56;;;;;;;;;24.00;23.25;;;;;17.43;35.14;100498.69;2094936;28;47358;-60
2022/03/29 04:10:57;;;;;;;;;26.50;23.75;;;;;17.42;35.19;100497.84;2091417;28;47322;-57
2022/03/29 04:11:57;;;;;;;;;22.50;21.25;;;;;17.41;35.03;100493.44;2100471;28;47817;-60
2022/03/29 04:12:58;;;;;;;;;25.25;22.75;;;;;17.42;35.06;100496.97;2097030;28;47309;-57
2022/03/29 04:13:58;;;;;;;;;24.00;23.25;;;;;17.40;35.24;100496.16;2096574;28;47920;-59
2022/03/29 04:14:59;;;;;;;;;21.00;17.00;;;;;17.38;35.09;100493.56;2103824;28;47537;-58
2022/03/29 04:16:00;;;;;;;;;24.00;22.75;;;;;17.39;35.23;100502.47;2103662;28;47504;-59
2022/03/29 04:17:00;;;;;;;;;26.60;26.00;;;;;17.38;35.28;100493.56;2101616;28;47544;-59
2022/03/29 04:18:01;;;;;;;;;23.50;23.50;;;;;17.38;35.17;100493.56;2084273;28;47473;-58
2022/03/29 04:19:02;;;;;;;;;23.75;21.50;;;;;17.38;35.37;100490.88;2078829;28;47600;-59
2022/03/29 04:20:03;;;;;;;;;29.75;25.25;;;;;17.38;35.00;100490.00;2102210;28;47392;-58
2022/03/29 04:21:05;;;;;;;;;30.25;27.00;;;;;17.37;34.80;100489.16;2102092;27;47289;-57
2022/03/29 04:22:05;;;;;;;;;25.00;24.80;;;;;17.37;35.25;100483.78;2098746;28;48083;-58
2022/03/29 04:23:07;;;;;;;;;29.00;27.00;;;;;17.38;35.12;100484.66;2101130;28;47245;-58
2022/03/29 04:24:07;;;;;;;;;22.40;20.20;;;;;17.37;35.66;100483.78;2101136;27;47536;-59
2022/03/29 04:25:09;;;;;;;;;26.75;26.50;;;;;17.36;35.30;100482.06;2101112;27;48056;-60
2022/03/29 04:26:10;;;;;;;;;26.40;24.40;;;;;17.36;35.50;100482.06;2083740;28;45962;-61
2022/03/29 04:27:10;;;;;;;;;27.00;27.00;;;;;17.36;35.70;100480.25;2079430;28;47742;-59
2022/03/29 04:28:11;;;;;;;;;21.50;21.50;;;;;17.36;35.34;100482.06;2100675;28;47050;-59
2022/03/29 04:29:11;;;;;;;;;22.75;22.00;;;;;17.35;35.21;100478.50;2099588;27;47454;-58
2022/03/29 04:30:11;;;;;;;;;20.75;19.75;;;;;17.36;35.22;100476.69;2095602;28;47315;-59
2022/03/29 04:31:12;;;;;;;;;26.75;25.00;;;;;17.34;35.43;100481.28;2103491;28;47097;-58
2022/03/29 04:32:12;;;;;;;;;28.25;25.75;;;;;17.34;35.37;100492.00;2102761;28;47626;-58
2022/03/29 04:33:14;;;;;;;;;25.25;22.25;;;;;17.32;35.64;100484.03;2101422;27;47864;-58
2022/03/29 04:34:14;;;;;;;;;25.40;24.40;;;;;17.30;35.45;100485.94;2100547;27;48156;-59
2022/03/29 04:35:15;;;;;;;;;22.75;20.25;;;;;17.30;35.43;100485.94;2102066;28;47744;-59
2022/03/29 04:36:15;;;;;;;;;29.25;26.75;;;;;17.29;35.66;100489.56;2100286;28;48031;-59
2022/03/29 04:37:16;;;;;;;;;28.75;28.25;;;;;17.28;35.68;100485.16;2089034;28;47114;-58
2022/03/29 04:38:16;;;;;;;;;25.50;23.75;;;;;17.28;35.77;100481.63;2093153;28;48430;-59
2022/03/29 04:39:17;;;;;;;;;29.50;24.00;;;;;17.27;35.63;100486.09;2082612;28;47581;-59